Time;durP1;ratioP1;P1;durP2;ratioP2;P2;SDS_P1;SDS_P2;PMS_P1;PMS_P2;Temp;Humidity;BMP_temperature;BMP_pressure;BME280_temperature;BME280_humidity;BME280_pressure;Samples;Min_cycle;Max_cycle;Signal;HPM_P1;HPM_P2
2022/11/05 00:09:28;;;;;;;0.68;0.60;;;7.50;90.60;;;;;;5113206;28;20048;-76
2022/11/05 00:17:15;;;;;;;0.30;0.30;;;7.60;90.50;;;;;;5113085;28;20421;-75
2022/11/05 00:19:41;;;;;;;0.47;0.40;;;7.60;90.40;;;;;;5095343;28;20067;-76
2022/11/05 00:27:26;;;;;;;0.40;0.40;;;7.70;90.40;;;;;;5112906;28;20369;-75
2022/11/05 00:29:52;;;;;;;0.50;0.50;;;7.70;90.30;;;;;;5113011;28;20048;-75
2022/11/05 00:32:19;;;;;;;0.40;0.40;;;7.70;90.30;;;;;;5112843;28;20050;-75
2022/11/05 00:34:44;;;;;;;0.40;0.40;;;7.70;90.40;;;;;;5094395;28;20476;-75
2022/11/05 00:37:10;;;;;;;0.30;0.30;;;7.80;90.40;;;;;;5112847;28;20036;-74
2022/11/05 00:39:36;;;;;;;1.13;0.40;;;7.80;90.40;;;;;;5113409;28;20365;-74
2022/11/05 00:50:09;;;;;;;1.02;0.55;;;7.70;90.60;;;;;;5081684;28;20051;-74
2022/11/05 00:55:18;;;;;;;0.70;0.60;;;7.60;90.60;;;;;;5096675;28;20092;-74
2022/11/05 00:57:44;;;;;;;0.40;0.40;;;7.60;90.60;;;;;;5112891;28;20032;-74
2022/11/05 01:00:11;;;;;;;0.82;0.60;;;7.60;90.60;;;;;;5094564;28;20509;-75
2022/11/05 01:02:36;;;;;;;0.90;0.57;;;7.60;90.60;;;;;;5077220;28;20039;-75
2022/11/05 01:05:02;;;;;;;0.47;0.47;;;7.60;90.60;;;;;;5093913;28;20036;-75
2022/11/05 01:07:28;;;;;;;0.40;0.40;;;7.60;90.60;;;;;;5093995;28;20401;-75
2022/11/05 01:09:54;;;;;;;0.60;0.50;;;7.60;90.70;;;;;;5112597;28;20047;-75
2022/11/05 01:12:20;;;;;;;0.40;0.40;;;7.60;90.60;;;;;;5111468;28;20044;-74
2022/11/05 01:14:45;;;;;;;0.40;0.40;;;7.60;90.60;;;;;;5112679;28;20032;-75
2022/11/05 01:17:11;;;;;;;0.38;0.38;;;7.50;90.70;;;;;;5112339;28;20047;-75
2022/11/05 01:19:38;;;;;;;0.40;0.40;;;7.50;90.70;;;;;;5112127;28;20039;-75
2022/11/05 01:22:04;;;;;;;0.60;0.50;;;7.50;90.70;;;;;;5112758;28;20108;-75
2022/11/05 01:24:29;;;;;;;0.70;0.52;;;7.40;90.70;;;;;;5112482;28;20495;-75
2022/11/05 01:26:55;;;;;;;0.40;0.40;;;7.40;90.80;;;;;;5093744;28;20048;-74
2022/11/05 01:29:21;;;;;;;0.55;0.40;;;7.40;90.80;;;;;;5112125;28;20047;-72
2022/11/05 01:31:47;;;;;;;0.77;0.40;;;7.30;90.90;;;;;;5112156;28;20524;-74
2022/11/05 01:34:12;;;;;;;0.35;0.30;;;7.40;90.90;;;;;;5111731;28;20131;-75
2022/11/05 01:36:38;;;;;;;0.57;0.50;;;7.40;90.90;;;;;;5111780;28;20036;-75
2022/11/05 01:39:04;;;;;;;0.43;0.40;;;7.30;90.90;;;;;;5093777;28;20043;-76
2022/11/05 01:41:30;;;;;;;0.50;0.40;;;7.20;90.90;;;;;;5112257;28;20034;-75
2022/11/05 01:43:58;;;;;;;1.25;0.60;;;7.20;90.90;;;;;;5111838;28;20036;-75
2022/11/05 01:46:39;;;;;;;0.70;0.50;;;7.30;91.00;;;;;;5093316;28;20104;-75
2022/11/05 01:49:14;;;;;;;0.50;0.50;;;7.20;91.00;;;;;;5110765;28;20179;-75
2022/11/05 01:51:41;;;;;;;0.50;0.50;;;7.20;91.00;;;;;;5111716;28;20043;-75
2022/11/05 01:54:12;;;;;;;0.40;0.40;;;7.20;91.00;;;;;;5093413;28;20035;-74
2022/11/05 01:56:45;;;;;;;0.55;0.40;;;7.00;90.90;;;;;;5111572;28;20446;-75
2022/11/05 01:59:21;;;;;;;0.38;0.38;;;7.10;91.00;;;;;;5093292;28;20092;-74
2022/11/05 02:01:47;;;;;;;0.68;0.50;;;7.00;90.90;;;;;;5092813;28;20040;-76
2022/11/05 02:04:28;;;;;;;0.63;0.50;;;6.90;90.90;;;;;;5093564;28;20398;-75
2022/11/05 02:06:54;;;;;;;0.20;0.20;;;7.00;91.00;;;;;;5111418;28;20078;-76
2022/11/05 02:09:38;;;;;;;0.38;0.35;;;6.80;91.00;;;;;;5111702;28;20046;-77
2022/11/05 02:12:05;;;;;;;0.30;0.30;;;6.80;91.00;;;;;;5076303;28;20136;-77
2022/11/05 02:14:31;;;;;;;0.43;0.43;;;6.80;91.00;;;;;;5093572;28;20043;-76
2022/11/05 02:17:09;;;;;;;0.45;0.38;;;6.80;91.00;;;;;;5111419;28;20100;-75
2022/11/05 02:20:08;;;;;;;0.60;0.57;;;6.80;91.00;;;;;;5110007;28;20478;-74
2022/11/05 02:23:00;;;;;;;0.60;0.40;;;6.80;91.00;;;;;;5093387;28;20035;-74
2022/11/05 02:25:57;;;;;;;0.57;0.50;;;6.80;91.00;;;;;;5096736;28;20040;-73
2022/11/05 02:28:54;;;;;;;0.90;0.40;;;6.70;91.10;;;;;;5096518;28;20477;-75
2022/11/05 02:31:54;;;;;;;0.75;0.57;;;6.80;91.10;;;;;;5101379;28;20051;-74
2022/11/05 02:34:48;;;;;;;0.30;0.30;;;6.70;91.00;;;;;;5101783;28;20066;-74
2022/11/05 02:37:39;;;;;;;0.38;0.38;;;6.70;91.00;;;;;;5096120;28;20060;-75
2022/11/05 02:40:25;;;;;;;0.60;0.50;;;6.70;91.00;;;;;;5085395;28;20378;-74
2022/11/05 02:43:15;;;;;;;0.40;0.40;;;6.70;91.00;;;;;;5113035;28;20127;-75
2022/11/05 02:45:54;;;;;;;0.57;0.50;;;6.60;91.00;;;;;;5081267;28;20044;-74
2022/11/05 02:48:28;;;;;;;0.25;0.25;;;6.60;91.00;;;;;;5094577;28;20423;-74
2022/11/05 02:51:09;;;;;;;0.22;0.15;;;6.60;91.00;;;;;;5113626;28;20553;-74
2022/11/05 02:54:06;;;;;;;0.40;0.40;;;6.60;91.00;;;;;;5112916;28;20096;-74
2022/11/05 02:56:35;;;;;;;0.40;0.38;;;6.50;91.10;;;;;;5095989;28;20040;-74
2022/11/05 02:59:01;;;;;;;0.35;0.35;;;6.50;91.30;;;;;;5114293;28;20051;-73
2022/11/05 03:01:27;;;;;;;0.43;0.30;;;6.50;91.10;;;;;;5095786;28;20485;-74
2022/11/05 03:04:00;;;;;;;1.10;0.40;;;6.50;91.10;;;;;;5096191;28;20553;-74
2022/11/05 03:06:57;;;;;;;0.40;0.30;;;6.50;91.10;;;;;;5114307;28;20506;-76
2022/11/05 03:09:47;;;;;;;0.40;0.40;;;6.50;91.10;;;;;;5080183;28;20536;-75
2022/11/05 03:12:43;;;;;;;0.30;0.30;;;6.50;91.10;;;;;;5081011;28;20047;-76
2022/11/05 03:15:30;;;;;;;0.32;0.32;;;6.60;91.10;;;;;;5113778;28;20464;-75
2022/11/05 03:18:12;;;;;;;0.45;0.40;;;6.60;91.00;;;;;;5113844;28;20481;-75
2022/11/05 03:20:44;;;;;;;;;;;6.60;91.00;;;;;;5097129;28;20116;-76
2022/11/05 03:23:34;;;;;;;0.75;0.30;;;6.60;90.90;;;;;;5094380;28;19911;-75
2022/11/05 03:26:24;;;;;;;0.20;0.20;;;6.60;90.90;;;;;;5094659;28;20043;-75
2022/11/05 03:28:55;;;;;;;0.30;0.30;;;6.60;90.80;;;;;;5095229;28;20035;-75
2022/11/05 03:31:23;;;;;;;0.57;0.22;;;6.70;90.80;;;;;;5113646;28;20047;-75
2022/11/05 03:33:53;;;;;;;0.47;0.40;;;6.70;90.80;;;;;;5095814;28;20063;-75
2022/11/05 03:36:25;;;;;;;0.68;0.40;;;6.70;90.80;;;;;;5112925;28;20067;-75
2022/11/05 03:38:53;;;;;;;0.30;0.30;;;6.70;90.80;;;;;;5095256;28;20447;-75
2022/11/05 03:41:21;;;;;;;0.35;0.30;;;6.60;90.80;;;;;;5096164;28;20040;-76
2022/11/05 03:43:53;;;;;;;0.30;0.20;;;6.70;90.80;;;;;;5113707;28;20044;-76
2022/11/05 03:46:25;;;;;;;;;;;6.70;90.80;;;;;;5096521;28;20471;-76
2022/11/05 03:48:54;;;;;;;0.88;0.57;;;6.70;90.80;;;;;;5113490;28;19974;-75
2022/11/05 03:51:44;;;;;;;0.65;0.52;;;6.60;90.80;;;;;;5113370;28;20492;-76
2022/11/05 03:54:10;;;;;;;0.30;0.30;;;6.60;90.90;;;;;;5081024;28;20036;-75
2022/11/05 03:56:56;;;;;;;0.73;0.40;;;6.60;90.90;;;;;;5078104;28;20031;-75
2022/11/05 03:59:23;;;;;;;0.30;0.30;;;6.60;90.90;;;;;;5097185;28;20040;-75
2022/11/05 04:01:48;;;;;;;0.30;0.30;;;6.60;90.90;;;;;;5113720;28;20035;-75
2022/11/05 04:04:14;;;;;;;0.40;0.40;;;6.50;90.90;;;;;;5113402;28;20502;-75
2022/11/05 04:14:43;;;;;;;0.30;0.30;;;6.40;91.00;;;;;;5097170;28;20043;-75
2022/11/05 04:17:08;;;;;;;1.15;0.30;;;6.40;91.10;;;;;;5112914;28;20046;-75
2022/11/05 04:24:57;;;;;;;0.20;0.20;;;6.30;91.10;;;;;;5113025;28;20047;-75
2022/11/05 04:27:23;;;;;;;0.10;0.10;;;6.20;91.10;;;;;;5095269;28;20047;-75
2022/11/05 04:32:27;;;;;;;0.43;0.43;;;6.10;91.10;;;;;;5112839;28;20346;-76
2022/11/05 04:34:53;;;;;;;0.50;0.45;;;6.10;91.20;;;;;;5112880;28;20052;-76
2022/11/05 04:37:18;;;;;;;0.40;0.30;;;6.00;91.20;;;;;;5112862;28;20080;-76
2022/11/05 04:39:44;;;;;;;0.20;0.20;;;6.00;91.20;;;;;;5094735;28;20039;-75
2022/11/05 04:42:10;;;;;;;0.88;0.47;;;6.00;91.30;;;;;;5112490;28;20035;-75
2022/11/05 04:44:36;;;;;;;0.20;0.20;;;5.90;91.30;;;;;;5094506;28;20050;-75
2022/11/05 04:47:02;;;;;;;0.40;0.30;;;5.90;91.30;;;;;;5111547;28;20036;-75
2022/11/05 04:49:27;;;;;;;0.38;0.35;;;5.90;91.30;;;;;;5094573;28;20047;-76
2022/11/05 04:51:53;;;;;;;0.20;0.20;;;5.80;91.30;;;;;;5112738;28;20040;-75
2022/11/05 04:54:19;;;;;;;0.20;0.20;;;5.90;91.30;;;;;;5094146;28;20039;-76
2022/11/05 04:56:45;;;;;;;0.40;0.40;;;5.90;91.30;;;;;;5094223;28;20039;-75
2022/11/05 04:59:10;;;;;;;0.57;0.40;;;5.80;91.30;;;;;;5112642;28;20046;-75
2022/11/05 05:01:36;;;;;;;0.50;0.40;;;5.80;91.30;;;;;;5094834;28;20488;-75
2022/11/05 05:04:02;;;;;;;0.20;0.20;;;5.80;91.30;;;;;;5112686;28;20512;-75
2022/11/05 05:06:28;;;;;;;0.32;0.32;;;5.70;91.20;;;;;;5094449;28;20043;-75
2022/11/05 05:08:53;;;;;;;0.45;0.30;;;5.80;91.30;;;;;;5094425;28;20105;-76
2022/11/05 05:11:20;;;;;;;0.45;0.43;;;5.70;91.30;;;;;;5094695;28;20036;-75
2022/11/05 05:13:47;;;;;;;2.90;0.40;;;5.70;91.30;;;;;;5112688;28;20035;-76
2022/11/05 05:16:22;;;;;;;0.50;0.50;;;5.70;91.40;;;;;;5094365;28;20044;-75
2022/11/05 05:18:48;;;;;;;0.40;0.40;;;5.80;91.40;;;;;;5094442;28;20028;-75
2022/11/05 05:23:59;;;;;;;0.77;0.45;;;5.90;91.20;;;;;;5112321;28;20055;-75
2022/11/05 05:26:25;;;;;;;0.30;0.30;;;5.90;91.10;;;;;;5094093;28;20049;-75
2022/11/05 05:28:52;;;;;;;0.50;0.50;;;5.90;91.00;;;;;;5094170;28;20160;-76
2022/11/05 05:31:19;;;;;;;0.50;0.50;;;6.00;91.00;;;;;;5112699;28;20073;-75
2022/11/05 05:33:45;;;;;;;0.57;0.57;;;5.90;91.00;;;;;;5093921;28;20102;-76
2022/11/05 05:36:11;;;;;;;0.60;0.60;;;6.00;91.10;;;;;;5112360;28;20504;-76
2022/11/05 05:38:36;;;;;;;0.70;0.60;;;6.00;91.10;;;;;;5093881;28;20079;-75
2022/11/05 05:41:02;;;;;;;0.70;0.60;;;6.00;91.10;;;;;;5112228;28;20036;-75
2022/11/05 05:43:30;;;;;;;1.25;0.47;;;6.00;91.10;;;;;;5094076;28;20513;-75
2022/11/05 05:45:59;;;;;;;1.00;0.40;;;6.00;91.30;;;;;;5093819;28;20047;-75
2022/11/05 05:48:25;;;;;;;0.82;0.50;;;5.90;91.00;;;;;;5092330;28;20040;-75
2022/11/05 05:50:51;;;;;;;0.63;0.50;;;5.90;91.00;;;;;;5093744;28;20409;-75
2022/11/05 05:53:17;;;;;;;0.57;0.50;;;6.00;91.10;;;;;;5093726;28;20447;-76
2022/11/05 05:55:42;;;;;;;0.70;0.55;;;6.00;91.10;;;;;;5093657;28;20040;-76
2022/11/05 05:58:10;;;;;;;0.68;0.60;;;5.90;91.00;;;;;;5094155;28;20112;-76
2022/11/05 06:00:36;;;;;;;0.98;0.80;;;5.90;91.10;;;;;;5097583;28;20066;-76
2022/11/05 06:03:02;;;;;;;0.73;0.70;;;6.00;91.10;;;;;;5115390;28;20067;-76
2022/11/05 06:05:27;;;;;;;1.33;0.88;;;6.00;91.10;;;;;;5097975;28;20055;-75
2022/11/05 06:07:56;;;;;;;0.57;0.50;;;6.00;91.10;;;;;;5097352;28;20043;-75
2022/11/05 06:10:22;;;;;;;0.75;0.70;;;6.00;91.00;;;;;;5063294;28;20035;-75
2022/11/05 06:12:48;;;;;;;0.93;0.65;;;6.00;91.00;;;;;;5096878;28;20089;-76
2022/11/05 06:15:14;;;;;;;0.73;0.73;;;6.00;91.00;;;;;;5115221;28;20032;-75
2022/11/05 06:17:42;;;;;;;0.73;0.60;;;6.00;91.00;;;;;;5115229;28;20399;-76
2022/11/05 06:20:12;;;;;;;0.77;0.60;;;6.00;91.00;;;;;;5080047;28;20039;-75
2022/11/05 06:22:38;;;;;;;0.70;0.70;;;6.10;91.10;;;;;;5096855;28;20129;-76
2022/11/05 06:25:05;;;;;;;0.50;0.50;;;6.20;91.10;;;;;;5115392;28;20067;-75
2022/11/05 06:27:31;;;;;;;2.42;0.90;;;6.10;91.10;;;;;;5115570;28;20039;-75
2022/11/05 06:29:56;;;;;;;0.75;0.70;;;6.10;91.00;;;;;;5096758;28;20052;-75
2022/11/05 06:32:22;;;;;;;0.60;0.52;;;6.10;91.00;;;;;;5097160;28;20042;-76
2022/11/05 06:34:48;;;;;;;1.35;0.70;;;6.10;91.00;;;;;;5114692;28;20064;-76
2022/11/05 06:37:14;;;;;;;1.30;1.00;;;6.10;91.10;;;;;;5114762;28;20063;-75
2022/11/05 06:39:40;;;;;;;1.08;0.80;;;6.10;91.00;;;;;;5096604;28;20142;-76
2022/11/05 06:42:05;;;;;;;1.15;0.70;;;6.20;91.00;;;;;;5079690;28;20040;-76
2022/11/05 06:44:31;;;;;;;1.00;0.80;;;6.20;91.00;;;;;;5097159;28;20044;-75
2022/11/05 06:46:57;;;;;;;1.38;0.80;;;6.10;91.00;;;;;;5114848;28;20071;-76
2022/11/05 06:49:23;;;;;;;0.82;0.60;;;6.20;91.00;;;;;;5114740;28;20035;-76
2022/11/05 06:51:51;;;;;;;0.75;0.70;;;6.20;91.00;;;;;;5096610;28;20085;-75
2022/11/05 06:54:16;;;;;;;0.80;0.63;;;6.20;91.10;;;;;;5114587;28;20046;-75
2022/11/05 06:56:42;;;;;;;1.00;0.80;;;6.20;91.10;;;;;;5096834;28;20416;-76
2022/11/05 06:59:08;;;;;;;0.57;0.57;;;6.20;91.10;;;;;;5114711;28;20054;-76
2022/11/05 07:01:34;;;;;;;1.00;0.80;;;6.20;91.10;;;;;;5114709;28;20504;-76
2022/11/05 07:04:00;;;;;;;0.68;0.50;;;6.20;91.10;;;;;;5096028;28;20075;-76
2022/11/05 07:06:26;;;;;;;1.05;0.70;;;6.20;91.10;;;;;;5114445;28;20040;-76
2022/11/05 07:08:53;;;;;;;1.25;0.88;;;6.20;91.10;;;;;;5096444;28;20050;-76
2022/11/05 07:11:19;;;;;;;1.02;0.80;;;6.10;91.20;;;;;;5114039;28;20087;-76
2022/11/05 07:13:45;;;;;;;0.90;0.80;;;6.10;91.20;;;;;;5096122;28;20112;-76
2022/11/05 07:16:10;;;;;;;1.20;0.73;;;6.00;91.20;;;;;;5114483;28;20493;-76
2022/11/05 07:18:36;;;;;;;1.50;0.68;;;6.20;91.20;;;;;;5114236;28;20492;-75
2022/11/05 07:21:02;;;;;;;0.82;0.50;;;6.20;91.20;;;;;;5096432;28;20058;-76
2022/11/05 07:23:28;;;;;;;1.20;0.80;;;6.20;91.20;;;;;;5114414;28;20040;-75
2022/11/05 07:25:54;;;;;;;0.40;0.40;;;6.20;91.20;;;;;;5096318;28;20126;-76
2022/11/05 07:28:20;;;;;;;0.43;0.40;;;6.20;91.10;;;;;;5079091;28;20044;-76
2022/11/05 07:30:47;;;;;;;0.90;0.65;;;6.30;91.20;;;;;;5114557;28;20092;-76
2022/11/05 07:33:12;;;;;;;0.40;0.40;;;6.20;91.20;;;;;;5096402;28;20395;-76
2022/11/05 07:35:38;;;;;;;2.10;0.75;;;6.30;91.20;;;;;;5114316;28;20035;-75
2022/11/05 07:38:04;;;;;;;1.20;0.80;;;6.20;91.20;;;;;;5095913;28;20032;-76
2022/11/05 07:40:30;;;;;;;2.22;0.85;;;6.30;91.10;;;;;;5114443;28;20047;-75
2022/11/05 07:42:58;;;;;;;1.17;0.80;;;6.30;91.10;;;;;;5095903;28;20096;-76
2022/11/05 07:45:25;;;;;;;1.10;0.70;;;6.30;91.10;;;;;;5096032;28;20043;-76
2022/11/05 07:47:54;;;;;;;0.88;0.80;;;6.40;91.10;;;;;;5095854;28;20044;-76
2022/11/05 07:50:22;;;;;;;1.40;0.90;;;6.30;91.10;;;;;;5079149;28;20137;-76
2022/11/05 07:52:48;;;;;;;0.73;0.73;;;6.40;91.10;;;;;;5113903;28;20139;-75
2022/11/05 07:55:15;;;;;;;1.13;0.90;;;6.50;91.10;;;;;;5113979;28;20035;-76
2022/11/05 07:57:42;;;;;;;1.42;0.75;;;6.40;91.00;;;;;;5095561;28;20040;-76
2022/11/05 08:00:12;;;;;;;1.65;1.00;;;6.50;91.00;;;;;;5113772;28;20076;-75
2022/11/05 08:02:37;;;;;;;1.58;0.95;;;6.70;91.00;;;;;;5095917;28;20063;-76
2022/11/05 08:05:03;;;;;;;0.75;0.70;;;6.60;90.90;;;;;;5095252;28;20074;-74
2022/11/05 08:07:30;;;;;;;0.82;0.70;;;6.60;90.90;;;;;;5095713;28;20043;-74
2022/11/05 08:09:55;;;;;;;0.85;0.70;;;6.70;90.90;;;;;;5076342;28;20127;-74
2022/11/05 08:12:21;;;;;;;1.65;1.00;;;6.70;90.90;;;;;;5113872;28;20070;-74
2022/11/05 08:14:47;;;;;;;1.88;0.93;;;6.80;90.90;;;;;;5095732;28;20040;-75
2022/11/05 08:17:13;;;;;;;0.93;0.73;;;6.80;90.90;;;;;;5095213;28;20031;-75
2022/11/05 08:19:38;;;;;;;0.88;0.80;;;6.80;90.90;;;;;;5095145;28;20044;-75
2022/11/05 08:22:04;;;;;;;1.20;0.90;;;6.90;90.90;;;;;;5094683;28;20435;-75
2022/11/05 08:24:30;;;;;;;0.65;0.65;;;6.90;90.80;;;;;;5113241;28;20039;-75
2022/11/05 08:26:55;;;;;;;1.25;0.95;;;7.00;90.90;;;;;;5095144;28;20047;-75
2022/11/05 08:29:21;;;;;;;1.75;1.10;;;7.00;90.80;;;;;;5094935;28;20043;-75
2022/11/05 08:31:47;;;;;;;1.98;1.00;;;7.00;90.80;;;;;;5113918;28;20482;-75
2022/11/05 08:34:13;;;;;;;1.40;1.02;;;7.00;90.80;;;;;;5095425;28;20406;-75
2022/11/05 08:36:40;;;;;;;1.88;1.10;;;7.10;90.70;;;;;;5095147;28;20627;-75
2022/11/05 08:39:06;;;;;;;1.45;1.00;;;7.10;90.70;;;;;;5095316;28;20035;-74
2022/11/05 08:41:32;;;;;;;1.65;1.00;;;7.20;91.00;;;;;;5094921;28;20046;-75
2022/11/05 08:43:58;;;;;;;1.55;1.08;;;7.20;90.70;;;;;;5113556;28;20449;-75
2022/11/05 08:46:23;;;;;;;2.20;1.02;;;7.30;90.70;;;;;;5094920;28;20050;-75
2022/11/05 08:48:49;;;;;;;0.75;0.70;;;7.30;90.70;;;;;;5077859;28;20130;-75
2022/11/05 08:51:15;;;;;;;1.80;1.30;;;7.30;90.70;;;;;;5112885;28;20047;-75
2022/11/05 08:53:40;;;;;;;1.25;0.85;;;7.40;90.70;;;;;;5094537;28;20058;-74
2022/11/05 08:56:06;;;;;;;2.47;1.10;;;7.40;90.60;;;;;;5113328;28;20153;-74
2022/11/05 08:58:32;;;;;;;1.83;1.02;;;7.50;90.60;;;;;;5094518;28;20104;-74
2022/11/05 09:00:58;;;;;;;2.08;1.20;;;7.50;90.60;;;;;;5112622;28;20481;-75
2022/11/05 09:03:24;;;;;;;0.90;0.85;;;7.70;90.60;;;;;;5112729;28;20027;-74
2022/11/05 09:05:49;;;;;;;1.85;0.93;;;7.60;90.50;;;;;;5094800;28;20059;-74
2022/11/05 09:08:17;;;;;;;2.05;1.30;;;7.60;90.50;;;;;;5077416;28;20048;-74
2022/11/05 09:10:44;;;;;;;1.55;1.08;;;7.70;90.50;;;;;;5113141;28;20051;-74
2022/11/05 09:13:10;;;;;;;1.65;1.00;;;7.80;90.50;;;;;;5112448;28;20043;-74
2022/11/05 09:15:36;;;;;;;1.73;1.20;;;7.90;90.50;;;;;;5094497;28;20486;-73
2022/11/05 09:18:04;;;;;;;1.45;1.08;;;8.00;90.70;;;;;;5113116;28;20043;-74
2022/11/05 09:20:31;;;;;;;3.42;1.05;;;8.00;90.40;;;;;;5094347;28;20043;-74
2022/11/05 09:22:57;;;;;;;0.90;0.80;;;8.00;90.30;;;;;;5112772;28;20043;-74
2022/11/05 09:25:23;;;;;;;2.08;0.90;;;8.20;90.30;;;;;;5113099;28;20053;-73
2022/11/05 09:27:49;;;;;;;1.20;1.00;;;8.10;90.30;;;;;;5112640;28;20123;-73
2022/11/05 09:30:15;;;;;;;0.95;0.90;;;8.20;90.30;;;;;;5112498;28;20043;-73
2022/11/05 09:32:40;;;;;;;1.60;0.90;;;8.20;90.30;;;;;;5094051;28;20043;-73
2022/11/05 09:35:08;;;;;;;0.95;0.80;;;8.30;90.30;;;;;;5097950;28;20144;-73
2022/11/05 09:37:35;;;;;;;2.38;0.98;;;8.30;90.30;;;;;;5115824;28;20051;-73
2022/11/05 09:40:01;;;;;;;0.90;0.80;;;8.40;90.30;;;;;;5116023;28;20043;-75
2022/11/05 09:42:33;;;;;;;0.60;0.55;;;8.40;90.30;;;;;;5116196;28;20104;-74
2022/11/05 09:45:03;;;;;;;1.48;1.00;;;8.50;90.20;;;;;;5115909;28;20122;-75
2022/11/05 09:47:34;;;;;;;1.52;1.00;;;8.50;90.20;;;;;;5097284;28;20039;-74
2022/11/05 09:50:05;;;;;;;1.02;0.80;;;8.60;90.20;;;;;;5115817;28;20549;-75
2022/11/05 09:52:32;;;;;;;;;;;8.60;90.10;;;;;;5082281;28;20395;-75
2022/11/05 09:54:58;;;;;;;0.73;0.73;;;8.70;90.10;;;;;;5115821;28;19915;-74
2022/11/05 09:57:29;;;;;;;1.45;0.90;;;8.70;90.10;;;;;;5080330;28;20050;-74
2022/11/05 09:59:57;;;;;;;;;;;8.80;90.10;;;;;;5097755;28;20044;-75
2022/11/05 10:02:30;;;;;;;1.45;0.70;;;8.70;90.00;;;;;;5095360;28;19918;-75
2022/11/05 10:05:01;;;;;;;1.10;0.75;;;8.80;90.00;;;;;;5095631;28;20101;-75
2022/11/05 10:07:30;;;;;;;0.90;0.80;;;8.90;90.00;;;;;;5095541;28;20052;-74
2022/11/05 10:10:03;;;;;;;1.30;1.00;;;8.90;90.00;;;;;;5115347;28;20494;-75
2022/11/05 10:12:38;;;;;;;1.63;0.90;;;9.10;90.00;;;;;;5114558;28;20134;-75
2022/11/05 10:15:26;;;;;;;1.45;1.10;;;9.20;90.00;;;;;;5097995;28;20051;-74
2022/11/05 10:17:58;;;;;;;0.73;0.73;;;9.20;89.70;;;;;;5066791;28;20180;-75
2022/11/05 10:20:34;;;;;;;1.67;1.10;;;9.30;89.60;;;;;;5115342;28;20036;-75
2022/11/05 10:23:13;;;;;;;1.63;1.10;;;9.40;89.50;;;;;;5081134;28;20055;-75
2022/11/05 10:25:44;;;;;;;0.80;0.80;;;9.50;89.50;;;;;;5096819;28;20036;-75
2022/11/05 10:28:19;;;;;;;1.70;1.10;;;9.60;89.40;;;;;;5115535;28;20036;-75
2022/11/05 10:30:47;;;;;;;1.77;1.08;;;9.60;89.20;;;;;;5080573;28;20036;-75
2022/11/05 10:33:22;;;;;;;1.58;0.90;;;9.70;89.10;;;;;;5095055;28;20043;-75
2022/11/05 10:35:53;;;;;;;1.95;1.00;;;9.80;89.00;;;;;;5113711;28;20074;-75
2022/11/05 10:38:19;;;;;;;1.45;1.13;;;9.80;88.80;;;;;;5115167;28;20047;-75
2022/11/05 10:41:11;;;;;;;2.35;1.20;;;10.00;88.90;;;;;;5096513;28;20043;-75
2022/11/05 10:43:43;;;;;;;1.50;1.02;;;10.00;88.70;;;;;;5114799;28;20044;-75
2022/11/05 10:46:37;;;;;;;1.42;0.90;;;10.20;88.60;;;;;;5115253;28;20047;-75
2022/11/05 10:49:33;;;;;;;1.13;0.90;;;10.20;88.40;;;;;;5082374;28;20036;-75
2022/11/05 10:52:08;;;;;;;1.88;1.30;;;10.30;88.50;;;;;;5114835;28;20048;-75
2022/11/05 10:54:35;;;;;;;2.53;1.52;;;10.40;88.30;;;;;;5115090;28;20046;-75
2022/11/05 10:57:37;;;;;;;2.30;1.00;;;10.40;88.20;;;;;;5112702;28;20089;-75
2022/11/05 11:00:21;;;;;;;1.30;1.02;;;10.50;88.10;;;;;;5095209;28;20066;-75
2022/11/05 11:02:50;;;;;;;1.35;0.93;;;10.50;88.00;;;;;;5112922;28;20043;-76
2022/11/05 11:05:30;;;;;;;1.90;1.23;;;10.60;88.00;;;;;;5097009;28;20051;-75
2022/11/05 11:08:02;;;;;;;1.33;1.10;;;10.60;88.50;;;;;;5114728;28;20039;-75
2022/11/05 11:10:32;;;;;;;1.58;1.10;;;10.70;87.90;;;;;;5096542;28;20043;-76
2022/11/05 11:12:58;;;;;;;1.98;1.05;;;10.70;87.80;;;;;;5063062;28;20060;-75
2022/11/05 11:15:27;;;;;;;1.25;1.08;;;10.70;87.90;;;;;;5096519;28;20569;-76
2022/11/05 11:17:55;;;;;;;2.10;1.20;;;10.80;87.90;;;;;;5114428;28;20035;-75
2022/11/05 11:20:28;;;;;;;1.00;0.88;;;10.90;87.90;;;;;;5096213;28;20114;-73
2022/11/05 11:23:02;;;;;;;1.33;1.10;;;10.80;87.80;;;;;;5114736;28;20044;-74
2022/11/05 11:25:45;;;;;;;1.20;1.10;;;10.90;87.80;;;;;;5114713;28;20044;-74
2022/11/05 11:28:20;;;;;;;3.95;1.20;;;10.90;87.70;;;;;;5114385;28;20039;-74
2022/11/05 11:30:48;;;;;;;1.63;1.20;;;11.00;87.70;;;;;;5114280;28;20052;-74
2022/11/05 11:33:20;;;;;;;2.05;1.15;;;11.00;87.60;;;;;;5114369;28;20126;-74
2022/11/05 11:35:46;;;;;;;2.17;1.20;;;11.00;87.50;;;;;;5114171;28;20045;-74
2022/11/05 11:38:15;;;;;;;1.23;0.98;;;11.00;87.50;;;;;;5114258;28;20035;-74
2022/11/05 11:40:41;;;;;;;1.48;1.10;;;11.10;87.50;;;;;;5114270;28;20105;-74
2022/11/05 11:43:28;;;;;;;1.77;1.15;;;11.10;87.50;;;;;;5114622;28;20469;-73
2022/11/05 11:45:56;;;;;;;1.40;1.10;;;11.10;87.40;;;;;;5112792;28;20039;-74
2022/11/05 11:48:27;;;;;;;1.30;1.10;;;11.10;87.50;;;;;;5093952;28;20043;-74
2022/11/05 11:50:54;;;;;;;1.33;0.93;;;11.10;87.40;;;;;;5096964;28;20035;-74
2022/11/05 11:53:32;;;;;;;1.92;1.40;;;11.10;87.40;;;;;;5113857;28;20042;-74
2022/11/05 11:56:02;;;;;;;2.30;1.27;;;11.10;87.40;;;;;;5094838;28;20052;-74
2022/11/05 11:58:52;;;;;;;2.53;1.20;;;11.10;87.30;;;;;;5096012;28;20051;-74
2022/11/05 12:01:44;;;;;;;1.35;1.08;;;11.20;87.40;;;;;;5078354;28;20485;-74
2022/11/05 12:04:43;;;;;;;2.40;1.13;;;11.20;87.30;;;;;;5080641;28;20039;-74
2022/11/05 12:07:31;;;;;;;1.77;1.10;;;11.20;87.30;;;;;;5111874;28;20047;-74
2022/11/05 12:10:18;;;;;;;3.05;1.52;;;11.30;87.30;;;;;;5096883;28;20119;-74
2022/11/05 12:13:07;;;;;;;1.30;1.00;;;11.30;87.20;;;;;;5113488;28;20103;-73
2022/11/05 12:15:48;;;;;;;2.50;1.50;;;11.20;87.10;;;;;;5112932;28;20092;-73
2022/11/05 12:18:34;;;;;;;1.10;1.00;;;11.20;87.20;;;;;;5113385;28;20043;-73
2022/11/05 12:21:24;;;;;;;1.75;1.00;;;11.20;87.20;;;;;;5112214;28;20036;-74
2022/11/05 12:24:13;;;;;;;1.05;0.95;;;11.40;87.40;;;;;;5113426;28;20561;-74
2022/11/05 12:26:56;;;;;;;2.28;1.20;;;11.30;87.30;;;;;;5113344;28;20111;-74
2022/11/05 12:29:37;;;;;;;1.40;0.90;;;11.30;87.80;;;;;;5113784;28;20492;-74
2022/11/05 12:32:35;;;;;;;0.93;0.70;;;11.30;87.30;;;;;;5113209;28;20036;-74
2022/11/05 12:35:17;;;;;;;1.20;0.93;;;11.30;87.30;;;;;;5112802;28;20042;-74
2022/11/05 12:38:00;;;;;;;1.13;1.00;;;11.20;87.20;;;;;;5112980;28;20032;-74
2022/11/05 12:40:43;;;;;;;1.13;0.85;;;11.20;87.10;;;;;;5113363;28;20040;-74
2022/11/05 12:43:48;;;;;;;1.35;1.00;;;11.40;87.20;;;;;;5113341;28;20042;-74
2022/11/05 12:46:27;;;;;;;1.52;1.08;;;11.40;87.20;;;;;;5100646;28;20556;-74
2022/11/05 12:49:12;;;;;;;2.95;0.90;;;11.40;87.10;;;;;;5094774;28;20070;-74
2022/11/05 12:52:01;;;;;;;1.40;0.90;;;11.40;87.00;;;;;;5077787;28;20067;-74
2022/11/05 12:54:53;;;;;;;1.10;1.00;;;11.50;86.90;;;;;;5110718;28;20126;-74
2022/11/05 12:57:21;;;;;;;1.70;1.10;;;11.50;86.80;;;;;;5093272;28;20446;-74
2022/11/05 12:59:55;;;;;;;1.05;0.95;;;11.50;86.80;;;;;;5094543;28;20051;-74
2022/11/05 13:02:41;;;;;;;1.63;0.98;;;11.50;86.80;;;;;;5111859;28;20048;-74
2022/11/05 13:05:26;;;;;;;1.60;1.13;;;11.50;86.80;;;;;;5093275;28;20069;-74
2022/11/05 13:08:01;;;;;;;2.97;1.42;;;11.50;86.80;;;;;;5092323;28;20401;-74
2022/11/05 13:10:36;;;;;;;2.00;1.20;;;11.40;86.70;;;;;;5095814;28;20039;-74
2022/11/05 13:13:13;;;;;;;1.15;0.93;;;11.50;86.80;;;;;;5112669;28;20096;-74
2022/11/05 13:15:50;;;;;;;1.38;1.10;;;11.50;86.70;;;;;;5112437;28;20051;-74
2022/11/05 13:18:23;;;;;;;2.88;1.40;;;11.50;86.70;;;;;;5077315;28;20061;-74
2022/11/05 13:20:53;;;;;;;2.67;1.30;;;11.50;86.70;;;;;;5077888;28;20063;-73
2022/11/05 13:23:31;;;;;;;1.77;1.37;;;11.50;86.70;;;;;;5111097;28;20401;-74
2022/11/05 13:26:09;;;;;;;1.98;1.30;;;11.50;86.60;;;;;;5093499;28;20075;-74
2022/11/05 13:28:46;;;;;;;1.90;1.00;;;11.50;86.60;;;;;;5092766;28;20035;-74
2022/11/05 13:31:17;;;;;;;1.27;0.98;;;11.60;86.60;;;;;;5093660;28;20052;-74
2022/11/05 13:33:47;;;;;;;1.27;0.95;;;11.60;86.60;;;;;;5093822;28;20085;-74
2022/11/05 13:39:14;;;;;;;3.30;1.50;;;11.60;86.50;;;;;;5080791;28;20067;-74
2022/11/05 13:41:59;;;;;;;1.85;1.20;;;11.50;87.10;;;;;;5111758;28;20032;-74
2022/11/05 13:44:59;;;;;;;2.30;1.30;;;11.50;86.50;;;;;;5095955;28;20043;-74
2022/11/05 13:47:59;;;;;;;1.73;1.20;;;11.50;86.50;;;;;;5092917;28;20039;-74
2022/11/05 13:50:49;;;;;;;1.17;1.00;;;11.60;86.60;;;;;;5110707;28;20078;-73
2022/11/05 13:53:50;;;;;;;1.27;1.05;;;11.60;86.60;;;;;;5095855;28;20096;-73
2022/11/05 13:56:31;;;;;;;2.47;1.20;;;11.60;86.50;;;;;;5111370;28;20047;-73
2022/11/05 13:59:20;;;;;;;1.58;1.00;;;11.60;86.50;;;;;;5095593;28;20508;-73
2022/11/05 14:01:54;;;;;;;1.48;1.02;;;11.60;86.50;;;;;;5111822;28;21250;-73
2022/11/05 14:04:36;;;;;;;1.65;1.02;;;11.60;86.40;;;;;;5093617;28;20082;-74
2022/11/05 14:07:10;;;;;;;1.08;0.90;;;11.60;86.40;;;;;;5111700;28;20089;-74
2022/11/05 14:09:38;;;;;;;1.67;1.17;;;11.60;86.30;;;;;;5111791;28;20047;-73
2022/11/05 14:12:06;;;;;;;1.88;1.10;;;11.70;86.30;;;;;;5112285;28;20066;-74